Time;durP1;ratioP1;P1;durP2;ratioP2;P2;SDS_P1;SDS_P2;PMS_P1;PMS_P2;Temp;Humidity;BMP_temperature;BMP_pressure;BME280_temperature;BME280_humidity;BME280_pressure;Samples;Min_cycle;Max_cycle;Signal;HPM_P1;HPM_P2
2023/09/05 00:01:40;;;;;;;5.70;5.13;;;;;;;;;;5092171;28;21006;-61
2023/09/05 00:04:08;;;;;;;6.83;4.80;;;;;;;;;;5093023;28;20525;-61
2023/09/05 00:06:35;;;;;;;8.53;5.20;;;;;;;;;;5094719;28;20442;-61
2023/09/05 00:09:02;;;;;;;5.00;4.60;;;;;;;;;;5097133;28;20448;-61
2023/09/05 00:11:30;;;;;;;7.10;5.60;;;;;;;;;;5096267;28;20524;-61
2023/09/05 00:14:00;;;;;;;18.33;5.60;;;;;;;;;;5096042;28;20439;-61
2023/09/05 00:16:27;;;;;;;5.97;5.40;;;;;;;;;;5096457;28;20431;-61
2023/09/05 00:18:55;;;;;;;6.97;5.00;;;;;;;;;;5096576;28;20465;-61
2023/09/05 00:21:22;;;;;;;4.83;4.43;;;;;;;;;;5096134;28;20442;-61
2023/09/05 00:23:49;;;;;;;6.93;4.97;;;;;;;;;;5096057;28;20537;-61
2023/09/05 00:26:16;;;;;;;5.87;4.43;;;;;;;;;;5096203;28;20452;-61
2023/09/05 00:28:44;;;;;;;6.13;5.13;;;;;;;;;;5096066;28;20442;-61
2023/09/05 00:31:14;;;;;;;7.23;5.50;;;;;;;;;;5095892;28;20444;-61
2023/09/05 00:33:41;;;;;;;7.10;5.33;;;;;;;;;;5096204;28;20474;-61
2023/09/05 00:36:08;;;;;;;6.60;4.50;;;;;;;;;;5095947;28;20446;-61
2023/09/05 00:38:36;;;;;;;7.33;4.93;;;;;;;;;;5095528;28;20442;-62
2023/09/05 00:41:05;;;;;;;5.83;5.30;;;;;;;;;;5095814;28;20525;-61
2023/09/05 00:43:32;;;;;;;6.47;5.87;;;;;;;;;;5096051;28;20761;-62
2023/09/05 00:45:59;;;;;;;6.00;4.70;;;;;;;;;;5095723;28;20439;-62
2023/09/05 00:48:28;;;;;;;5.57;5.10;;;;;;;;;;5095472;28;20554;-61
2023/09/05 00:50:56;;;;;;;7.83;5.17;;;;;;;;;;5095585;28;20440;-61
2023/09/05 00:53:24;;;;;;;5.40;4.90;;;;;;;;;;5095358;28;20484;-61
2023/09/05 00:55:52;;;;;;;6.73;6.10;;;;;;;;;;5095841;28;20439;-61
2023/09/05 00:58:19;;;;;;;5.30;4.80;;;;;;;;;;5095198;28;20442;-61
2023/09/05 01:00:47;;;;;;;10.13;5.23;;;;;;;;;;5095213;28;20916;-61
2023/09/05 01:03:14;;;;;;;7.37;5.53;;;;;;;;;;5095144;28;20466;-61
2023/09/05 01:05:45;;;;;;;5.37;4.90;;;;;;;;;;5095114;28;20448;-61
2023/09/05 01:08:16;;;;;;;8.33;5.77;;;;;;;;;;5095329;28;20436;-61
2023/09/05 01:10:47;;;;;;;5.50;5.00;;;;;;;;;;5094749;28;20437;-61
2023/09/05 01:13:15;;;;;;;5.93;5.33;;;;;;;;;;5094553;28;20556;-61
2023/09/05 01:15:43;;;;;;;6.07;5.03;;;;;;;;;;5094870;28;20446;-61
2023/09/05 01:18:10;;;;;;;11.70;5.17;;;;;;;;;;5093655;28;20533;-61
2023/09/05 01:20:42;;;;;;;9.10;5.53;;;;;;;;;;5094547;28;20942;-61
2023/09/05 01:23:16;;;;;;;9.40;6.17;;;;;;;;;;5095246;28;20454;-60
2023/09/05 01:25:44;;;;;;;4.90;4.50;;;;;;;;;;5095282;28;20491;-61
2023/09/05 01:28:12;;;;;;;6.63;5.47;;;;;;;;;;5094559;28;20439;-61
2023/09/05 01:30:40;;;;;;;7.33;4.80;;;;;;;;;;5094566;28;20435;-61
2023/09/05 01:33:08;;;;;;;5.37;4.87;;;;;;;;;;5094409;28;21002;-61
2023/09/05 01:35:35;;;;;;;7.10;5.50;;;;;;;;;;5094630;28;20526;-62
2023/09/05 01:38:02;;;;;;;5.27;4.87;;;;;;;;;;5094079;28;20447;-61
2023/09/05 01:40:30;;;;;;;6.90;4.97;;;;;;;;;;5094547;28;20818;-61
2023/09/05 01:42:58;;;;;;;5.43;4.93;;;;;;;;;;5094450;28;20454;-61
2023/09/05 01:45:25;;;;;;;6.33;5.73;;;;;;;;;;5094627;28;20518;-62
2023/09/05 01:47:52;;;;;;;6.40;5.17;;;;;;;;;;5094235;28;20443;-62
2023/09/05 01:50:20;;;;;;;7.10;5.30;;;;;;;;;;5094844;28;20556;-62
2023/09/05 01:52:47;;;;;;;6.03;5.17;;;;;;;;;;5094310;28;20479;-60
2023/09/05 01:55:14;;;;;;;12.87;5.27;;;;;;;;;;5094642;28;20975;-60
2023/09/05 01:57:41;;;;;;;5.73;5.23;;;;;;;;;;5094597;28;20526;-61
2023/09/05 02:00:11;;;;;;;6.10;5.40;;;;;;;;;;5093931;28;20447;-61
2023/09/05 02:02:38;;;;;;;8.33;5.47;;;;;;;;;;5094094;28;20461;-61
2023/09/05 02:05:06;;;;;;;6.03;4.60;;;;;;;;;;5093982;28;20525;-61
2023/09/05 02:07:34;;;;;;;5.37;4.90;;;;;;;;;;5093956;28;20515;-61
2023/09/05 02:10:01;;;;;;;5.83;4.83;;;;;;;;;;5093429;28;20529;-61
2023/09/05 02:12:28;;;;;;;5.43;4.93;;;;;;;;;;5093631;28;20499;-60
2023/09/05 02:14:55;;;;;;;5.47;4.90;;;;;;;;;;5093878;28;20435;-61
2023/09/05 02:17:24;;;;;;;7.13;5.70;;;;;;;;;;5094089;28;20523;-60
2023/09/05 02:19:51;;;;;;;5.20;4.70;;;;;;;;;;5093311;28;20446;-60
2023/09/05 02:22:18;;;;;;;5.80;5.20;;;;;;;;;;5093765;28;20919;-60
2023/09/05 02:24:45;;;;;;;6.60;4.73;;;;;;;;;;5093245;28;20918;-61
2023/09/05 02:27:12;;;;;;;7.03;5.53;;;;;;;;;;5094007;28;20800;-61
2023/09/05 02:29:40;;;;;;;6.53;5.23;;;;;;;;;;5093096;28;20545;-61
2023/09/05 02:32:07;;;;;;;7.37;5.17;;;;;;;;;;5093365;28;20438;-60
2023/09/05 02:34:35;;;;;;;5.63;5.13;;;;;;;;;;5093609;28;20430;-61
2023/09/05 02:37:04;;;;;;;5.37;4.90;;;;;;;;;;5093214;28;20939;-61
2023/09/05 02:39:31;;;;;;;6.43;5.50;;;;;;;;;;5093039;28;20445;-61
2023/09/05 02:41:58;;;;;;;5.77;5.17;;;;;;;;;;5093100;28;21031;-61
2023/09/05 02:44:25;;;;;;;6.57;5.00;;;;;;;;;;5093337;28;20778;-61
2023/09/05 02:46:52;;;;;;;6.00;5.13;;;;;;;;;;5093993;28;20791;-61
2023/09/05 02:49:19;;;;;;;5.40;4.90;;;;;;;;;;5093545;28;20448;-60
2023/09/05 02:51:48;;;;;;;5.70;5.20;;;;;;;;;;5093045;28;20448;-60
2023/09/05 02:54:15;;;;;;;6.80;5.33;;;;;;;;;;5093328;28;20493;-60
2023/09/05 02:56:42;;;;;;;5.80;5.20;;;;;;;;;;5093479;28;20475;-61
2023/09/05 02:59:09;;;;;;;8.93;5.50;;;;;;;;;;5093014;28;20500;-60
2023/09/05 03:01:37;;;;;;;6.70;5.30;;;;;;;;;;5092835;28;20440;-60
2023/09/05 03:04:04;;;;;;;5.63;5.13;;;;;;;;;;5093273;28;20446;-61
2023/09/05 03:06:31;;;;;;;8.03;5.20;;;;;;;;;;5093175;28;20439;-61
2023/09/05 03:09:00;;;;;;;7.50;5.73;;;;;;;;;;5093029;28;20442;-60
2023/09/05 03:11:27;;;;;;;8.63;6.00;;;;;;;;;;5092918;28;20508;-60
2023/09/05 03:13:54;;;;;;;9.33;5.50;;;;;;;;;;5093441;28;20496;-61
2023/09/05 03:16:22;;;;;;;10.23;5.50;;;;;;;;;;5092881;28;20538;-62
2023/09/05 03:18:49;;;;;;;6.40;5.10;;;;;;;;;;5093021;28;20454;-60
2023/09/05 03:21:16;;;;;;;7.10;5.03;;;;;;;;;;5093040;28;20429;-60
2023/09/05 03:23:43;;;;;;;6.47;4.90;;;;;;;;;;5092884;28;20446;-62
2023/09/05 03:26:12;;;;;;;9.20;4.90;;;;;;;;;;5092470;28;20879;-61
2023/09/05 03:28:40;;;;;;;7.80;5.50;;;;;;;;;;5092781;28;20447;-60
2023/09/05 03:31:07;;;;;;;5.40;4.93;;;;;;;;;;5092219;28;20436;-60
2023/09/05 03:33:34;;;;;;;5.30;4.50;;;;;;;;;;5093068;28;20476;-61
2023/09/05 03:36:03;;;;;;;6.67;5.40;;;;;;;;;;5092588;28;20533;-61
2023/09/05 03:38:30;;;;;;;6.87;6.17;;;;;;;;;;5092333;28;20486;-60
2023/09/05 03:40:58;;;;;;;6.27;5.50;;;;;;;;;;5093435;28;20922;-60
2023/09/05 03:43:26;;;;;;;8.27;5.30;;;;;;;;;;5096959;28;20449;-62
2023/09/05 03:45:53;;;;;;;6.20;5.30;;;;;;;;;;5096735;28;20445;-61
2023/09/05 03:48:21;;;;;;;6.80;5.73;;;;;;;;;;5096619;28;20445;-61
2023/09/05 03:50:48;;;;;;;7.40;5.10;;;;;;;;;;5095919;28;20466;-61
2023/09/05 03:53:15;;;;;;;6.70;5.40;;;;;;;;;;5096165;28;20537;-60
2023/09/05 03:55:42;;;;;;;5.80;5.17;;;;;;;;;;5096613;28;20505;-60
2023/09/05 03:58:11;;;;;;;5.27;4.77;;;;;;;;;;5096543;28;20481;-60
2023/09/05 04:00:39;;;;;;;9.77;5.60;;;;;;;;;;5095909;28;20966;-61
2023/09/05 04:03:09;;;;;;;7.73;4.73;;;;;;;;;;5096269;28;20452;-60
2023/09/05 04:05:37;;;;;;;6.57;5.10;;;;;;;;;;5096512;28;20514;-61
2023/09/05 04:08:04;;;;;;;7.60;6.13;;;;;;;;;;5095939;28;20442;-60
2023/09/05 04:10:31;;;;;;;10.77;5.10;;;;;;;;;;5096192;28;20441;-60
2023/09/05 04:12:58;;;;;;;8.53;5.33;;;;;;;;;;5096107;28;20537;-61
2023/09/05 04:15:26;;;;;;;7.40;6.07;;;;;;;;;;5096220;28;20536;-61
2023/09/05 04:17:54;;;;;;;8.00;5.70;;;;;;;;;;5096191;28;20941;-61
2023/09/05 04:20:21;;;;;;;7.73;5.27;;;;;;;;;;5096452;28;20449;-61
2023/09/05 04:22:48;;;;;;;6.13;5.53;;;;;;;;;;5096037;28;20942;-61
2023/09/05 04:25:16;;;;;;;7.33;5.93;;;;;;;;;;5096297;28;20864;-60
2023/09/05 04:27:43;;;;;;;8.70;5.70;;;;;;;;;;5096718;28;20514;-61
2023/09/05 04:30:12;;;;;;;10.07;5.80;;;;;;;;;;5096149;28;20442;-61
2023/09/05 04:32:42;;;;;;;7.00;6.30;;;;;;;;;;5095994;28;20778;-61
2023/09/05 04:35:11;;;;;;;11.23;5.83;;;;;;;;;;5094408;28;20481;-61
2023/09/05 04:37:38;;;;;;;11.00;6.43;;;;;;;;;;5096244;28;20446;-61
2023/09/05 04:40:07;;;;;;;7.23;6.53;;;;;;;;;;5095978;28;20478;-61
2023/09/05 04:42:35;;;;;;;5.90;5.40;;;;;;;;;;5095719;28;20627;-60
2023/09/05 04:45:02;;;;;;;8.30;6.17;;;;;;;;;;5095646;28;20834;-61
2023/09/05 04:47:29;;;;;;;9.50;5.60;;;;;;;;;;5095405;28;20444;-69
2023/09/05 04:49:57;;;;;;;12.20;7.10;;;;;;;;;;5095608;28;20610;-65
2023/09/05 04:52:27;;;;;;;6.53;5.90;;;;;;;;;;5095031;28;20805;-60
2023/09/05 04:54:55;;;;;;;10.70;6.00;;;;;;;;;;5095445;28;20502;-60
2023/09/05 04:57:22;;;;;;;12.00;5.53;;;;;;;;;;5095641;28;20854;-60
2023/09/05 04:59:53;;;;;;;6.60;5.83;;;;;;;;;;5095461;28;20545;-60
2023/09/05 05:02:21;;;;;;;6.50;5.90;;;;;;;;;;5095465;28;20477;-60
2023/09/05 05:04:48;;;;;;;10.07;7.30;;;;;;;;;;5095299;28;20437;-62
2023/09/05 05:07:15;;;;;;;10.40;7.20;;;;;;;;;;5095351;28;20861;-62
2023/09/05 05:09:44;;;;;;;7.40;5.43;;;;;;;;;;5095206;28;21016;-62
2023/09/05 05:12:11;;;;;;;8.50;5.80;;;;;;;;;;5095088;28;20446;-63
2023/09/05 05:14:38;;;;;;;10.80;6.93;;;;;;;;;;5095372;28;20577;-63
2023/09/05 05:17:06;;;;;;;9.03;6.20;;;;;;;;;;5095054;28;20440;-62
2023/09/05 05:19:33;;;;;;;12.90;6.43;;;;;;;;;;5095114;28;20839;-62
2023/09/05 05:22:00;;;;;;;10.70;6.30;;;;;;;;;;5094790;28;20913;-62
2023/09/05 05:24:27;;;;;;;10.10;6.23;;;;;;;;;;5094728;28;20935;-62
2023/09/05 05:26:56;;;;;;;9.43;5.60;;;;;;;;;;5095310;28;20517;-62
2023/09/05 05:29:23;;;;;;;12.63;6.17;;;;;;;;;;5095033;28;20439;-62
2023/09/05 05:31:50;;;;;;;7.90;6.50;;;;;;;;;;5094572;28;20506;-62
2023/09/05 05:34:18;;;;;;;10.00;5.73;;;;;;;;;;5094942;28;20503;-62
2023/09/05 05:36:45;;;;;;;9.47;7.13;;;;;;;;;;5094844;28;20550;-62
2023/09/05 05:39:13;;;;;;;8.10;7.30;;;;;;;;;;5095115;28;20438;-62
2023/09/05 05:41:40;;;;;;;14.37;6.90;;;;;;;;;;5094386;28;20958;-62
2023/09/05 05:44:09;;;;;;;14.13;7.60;;;;;;;;;;5094691;28;20450;-62
2023/09/05 05:46:36;;;;;;;14.80;7.80;;;;;;;;;;5094634;28;20438;-62
2023/09/05 05:49:03;;;;;;;9.33;7.47;;;;;;;;;;5095195;28;20438;-62
2023/09/05 05:51:31;;;;;;;6.60;5.90;;;;;;;;;;5094122;28;20453;-62
2023/09/05 05:53:58;;;;;;;7.13;6.43;;;;;;;;;;5094214;28;20487;-62
2023/09/05 05:56:25;;;;;;;6.13;5.53;;;;;;;;;;5094403;28;20447;-62
2023/09/05 05:58:52;;;;;;;8.20;6.20;;;;;;;;;;5093936;28;20447;-62
2023/09/05 06:01:21;;;;;;;15.47;8.33;;;;;;;;;;5094201;28;20742;-62
2023/09/05 06:03:48;;;;;;;5.37;4.67;;;;;;;;;;5093431;28;20469;-62
2023/09/05 06:06:16;;;;;;;9.30;4.83;;;;;;;;;;5093772;28;20444;-62
2023/09/05 06:08:43;;;;;;;5.97;5.30;;;;;;;;;;5093738;28;20528;-62
2023/09/05 06:11:10;;;;;;;11.37;5.83;;;;;;;;;;5093764;28;20440;-62
2023/09/05 06:13:37;;;;;;;7.97;5.67;;;;;;;;;;5094055;28;20490;-62
2023/09/05 06:16:05;;;;;;;12.00;7.30;;;;;;;;;;5094013;28;20525;-62
2023/09/05 06:18:33;;;;;;;8.93;6.53;;;;;;;;;;5093939;28;20443;-63
2023/09/05 06:21:00;;;;;;;12.13;8.93;;;;;;;;;;5093885;28;20457;-62
2023/09/05 06:23:28;;;;;;;9.47;6.33;;;;;;;;;;5094084;28;20443;-62
2023/09/05 06:25:55;;;;;;;14.37;5.17;;;;;;;;;;5093534;28;20512;-62
2023/09/05 06:28:23;;;;;;;10.90;5.67;;;;;;;;;;5093539;28;20956;-62
2023/09/05 06:30:50;;;;;;;11.73;5.43;;;;;;;;;;5094406;28;20844;-62
2023/09/05 06:33:17;;;;;;;6.30;5.03;;;;;;;;;;5093642;28;20438;-62
2023/09/05 06:35:46;;;;;;;8.20;5.50;;;;;;;;;;5093771;28;20477;-62
2023/09/05 06:38:14;;;;;;;6.67;5.33;;;;;;;;;;5093194;28;20939;-62
2023/09/05 06:40:41;;;;;;;9.87;5.30;;;;;;;;;;5093079;28;20458;-62
2023/09/05 06:43:09;;;;;;;8.67;5.70;;;;;;;;;;5093277;28;20436;-62
2023/09/05 06:45:36;;;;;;;6.10;4.77;;;;;;;;;;5092903;28;20508;-62
2023/09/05 06:48:04;;;;;;;10.27;6.07;;;;;;;;;;5092971;28;20440;-62
2023/09/05 06:50:31;;;;;;;12.57;7.43;;;;;;;;;;5092877;28;20537;-62
2023/09/05 06:53:00;;;;;;;9.00;7.77;;;;;;;;;;5093268;28;20536;-62
2023/09/05 06:55:28;;;;;;;9.10;6.00;;;;;;;;;;5093429;28;20550;-62
2023/09/05 06:57:56;;;;;;;11.63;4.60;;;;;;;;;;5093709;28;20474;-62
2023/09/05 07:00:27;;;;;;;8.83;5.30;;;;;;;;;;5093236;28;20437;-62
2023/09/05 07:02:54;;;;;;;6.90;4.57;;;;;;;;;;5092787;28;20424;-62
2023/09/05 07:05:22;;;;;;;11.07;4.87;;;;;;;;;;5092792;28;20808;-62
2023/09/05 07:07:49;;;;;;;6.13;4.30;;;;;;;;;;5093241;28;20443;-62
2023/09/05 07:10:18;;;;;;;7.87;5.20;;;;;;;;;;5093095;28;20435;-62
2023/09/05 07:12:45;;;;;;;7.93;4.10;;;;;;;;;;5092922;28;20542;-62
2023/09/05 07:15:12;;;;;;;8.83;5.00;;;;;;;;;;5091576;28;20601;-62
2023/09/05 07:17:39;;;;;;;6.40;4.20;;;;;;;;;;5092630;28;20537;-62
2023/09/05 07:20:09;;;;;;;8.07;4.33;;;;;;;;;;5092948;28;20862;-62
2023/09/05 07:22:37;;;;;;;7.20;4.73;;;;;;;;;;5093218;28;20487;-62
2023/09/05 07:25:05;;;;;;;7.63;4.70;;;;;;;;;;5092715;28;20546;-62
2023/09/05 07:27:34;;;;;;;8.23;4.97;;;;;;;;;;5092615;28;20469;-62
2023/09/05 07:30:01;;;;;;;6.10;3.80;;;;;;;;;;5092769;28;20810;-62
2023/09/05 07:32:28;;;;;;;10.93;8.23;;;;;;;;;;5092709;28;20864;-62
2023/09/05 07:34:55;;;;;;;13.70;10.17;;;;;;;;;;5092826;28;20479;-62
2023/09/05 07:37:23;;;;;;;5.93;4.13;;;;;;;;;;5092710;28;20443;-64
2023/09/05 07:39:51;;;;;;;7.13;4.53;;;;;;;;;;5092333;28;20798;-63
2023/09/05 07:42:19;;;;;;;6.30;3.80;;;;;;;;;;5092527;28;20833;-65
2023/09/05 07:44:47;;;;;;;3.97;3.57;;;;;;;;;;5092386;28;20446;-62
2023/09/05 07:47:14;;;;;;;7.60;3.87;;;;;;;;;;5092472;28;20436;-63
2023/09/05 07:49:42;;;;;;;4.50;3.43;;;;;;;;;;5092201;28;20479;-62
2023/09/05 07:52:09;;;;;;;3.50;3.20;;;;;;;;;;5092700;28;20451;-63
2023/09/05 07:54:36;;;;;;;7.80;3.60;;;;;;;;;;5092532;28;20822;-62
2023/09/05 07:57:04;;;;;;;7.13;3.70;;;;;;;;;;5091779;28;21047;-63
2023/09/05 07:59:32;;;;;;;3.40;3.10;;;;;;;;;;5092396;28;20451;-62
2023/09/05 08:02:01;;;;;;;5.97;3.83;;;;;;;;;;5092409;28;20466;-62
2023/09/05 08:04:29;;;;;;;4.90;4.10;;;;;;;;;;5091885;28;20435;-63
2023/09/05 08:06:56;;;;;;;5.50;3.60;;;;;;;;;;5092376;28;20452;-63
2023/09/05 08:09:24;;;;;;;4.53;3.47;;;;;;;;;;5092479;28;20435;-63
2023/09/05 08:11:52;;;;;;;4.43;4.00;;;;;;;;;;5092520;28;20523;-64
2023/09/05 08:14:19;;;;;;;5.23;3.77;;;;;;;;;;5092353;28;20477;-62
2023/09/05 08:16:46;;;;;;;5.20;3.80;;;;;;;;;;5092843;28;20442;-63
2023/09/05 08:19:14;;;;;;;5.10;3.53;;;;;;;;;;5091834;28;20941;-63
2023/09/05 08:21:42;;;;;;;9.50;3.50;;;;;;;;;;5091734;28;20431;-63
2023/09/05 08:24:09;;;;;;;3.73;3.33;;;;;;;;;;5092205;28;20951;-63
2023/09/05 08:26:36;;;;;;;4.53;3.10;;;;;;;;;;5093091;28;20440;-62
2023/09/05 08:29:06;;;;;;;3.97;3.33;;;;;;;;;;5095633;28;20457;-63
2023/09/05 08:31:33;;;;;;;7.50;3.10;;;;;;;;;;5096038;28;20488;-62
2023/09/05 08:34:00;;;;;;;5.93;3.30;;;;;;;;;;5095502;28;20435;-63
2023/09/05 08:36:29;;;;;;;11.03;9.20;;;;;;;;;;5095603;28;21018;-64
2023/09/05 08:38:56;;;;;;;6.50;5.33;;;;;;;;;;5095888;28;20465;-62
2023/09/05 08:41:23;;;;;;;3.03;2.67;;;;;;;;;;5095942;28;20939;-63
2023/09/05 08:43:50;;;;;;;3.50;3.20;;;;;;;;;;5095567;28;20526;-63
2023/09/05 08:46:18;;;;;;;3.80;3.50;;;;;;;;;;5095236;28;20450;-63
2023/09/05 08:48:45;;;;;;;4.80;4.30;;;;;;;;;;5095114;28;21037;-63
2023/09/05 08:51:14;;;;;;;4.10;3.77;;;;;;;;;;5095331;28;20436;-63
2023/09/05 08:53:45;;;;;;;4.90;2.97;;;;;;;;;;5095589;28;21027;-62
2023/09/05 08:56:12;;;;;;;7.80;2.50;;;;;;;;;;5095049;28;20468;-62
2023/09/05 08:58:40;;;;;;;4.87;2.90;;;;;;;;;;5095317;28;20527;-63
2023/09/05 09:01:08;;;;;;;3.30;3.00;;;;;;;;;;5094887;28;20462;-63
2023/09/05 09:03:35;;;;;;;5.83;3.10;;;;;;;;;;5095298;28;20525;-62
2023/09/05 09:06:02;;;;;;;5.07;2.83;;;;;;;;;;5094920;28;20945;-63
2023/09/05 09:08:39;;;;;;;5.33;2.60;;;;;;;;;;5095838;28;20571;-63
2023/09/05 09:11:08;;;;;;;4.37;2.97;;;;;;;;;;5095878;28;20415;-62
2023/09/05 09:13:35;;;;;;;4.17;3.00;;;;;;;;;;5095053;28;20824;-62
2023/09/05 09:16:02;;;;;;;11.07;3.10;;;;;;;;;;5094906;28;20491;-62
2023/09/05 09:18:31;;;;;;;3.47;3.17;;;;;;;;;;5095181;28;20438;-62
2023/09/05 09:21:00;;;;;;;7.37;3.60;;;;;;;;;;5094768;28;20447;-62
2023/09/05 09:23:28;;;;;;;3.90;3.00;;;;;;;;;;5095113;28;20842;-62
2023/09/05 09:25:57;;;;;;;3.60;3.30;;;;;;;;;;5094801;28;20450;-62
2023/09/05 09:28:28;;;;;;;3.10;2.80;;;;;;;;;;5095071;28;20441;-62
2023/09/05 09:30:57;;;;;;;6.60;2.80;;;;;;;;;;5094786;28;20429;-62
2023/09/05 09:33:24;;;;;;;2.80;2.60;;;;;;;;;;5094616;28;20446;-62
2023/09/05 09:35:59;;;;;;;2.97;2.67;;;;;;;;;;5094369;28;20595;-62
2023/09/05 09:38:27;;;;;;;3.10;2.80;;;;;;;;;;5093480;28;20543;-62
2023/09/05 09:40:55;;;;;;;2.80;2.47;;;;;;;;;;5094716;28;20473;-62
2023/09/05 09:43:22;;;;;;;3.60;3.00;;;;;;;;;;5094238;28;20494;-62
2023/09/05 09:45:52;;;;;;;3.73;2.63;;;;;;;;;;5094177;28;20450;-62
2023/09/05 09:48:20;;;;;;;4.40;2.67;;;;;;;;;;5094474;28;20524;-62
2023/09/05 09:50:49;;;;;;;3.47;2.77;;;;;;;;;;5094161;28;20522;-62
2023/09/05 09:53:19;;;;;;;4.30;3.20;;;;;;;;;;5094052;28;20545;-62
2023/09/05 09:55:47;;;;;;;4.23;3.10;;;;;;;;;;5094343;28;20489;-62
2023/09/05 09:58:14;;;;;;;2.60;2.40;;;;;;;;;;5093980;28;20443;-62
2023/09/05 10:00:44;;;;;;;5.43;2.40;;;;;;;;;;5093833;28;20995;-62
2023/09/05 10:03:14;;;;;;;4.20;3.43;;;;;;;;;;5093889;28;20516;-62
2023/09/05 10:05:42;;;;;;;2.90;2.67;;;;;;;;;;5093816;28;20525;-62
2023/09/05 10:08:10;;;;;;;3.43;3.00;;;;;;;;;;5094216;28;20493;-62
2023/09/05 10:10:38;;;;;;;3.00;2.80;;;;;;;;;;5093952;28;20463;-62
2023/09/05 10:13:06;;;;;;;3.10;2.90;;;;;;;;;;5094022;28;20439;-62
2023/09/05 10:15:34;;;;;;;14.67;8.97;;;;;;;;;;5093672;28;20477;-62
2023/09/05 10:18:01;;;;;;;5.83;3.50;;;;;;;;;;5094018;28;20435;-62
2023/09/05 10:20:31;;;;;;;4.10;2.60;;;;;;;;;;5093606;28;20522;-61
2023/09/05 10:22:58;;;;;;;4.13;2.60;;;;;;;;;;5093539;28;20487;-61
2023/09/05 10:25:26;;;;;;;3.87;2.57;;;;;;;;;;5093223;28;20863;-61
2023/09/05 10:27:53;;;;;;;5.90;2.53;;;;;;;;;;5093261;28;20970;-61
2023/09/05 10:30:21;;;;;;;4.80;4.33;;;;;;;;;;5093387;28;20524;-61
2023/09/05 10:32:49;;;;;;;8.70;6.97;;;;;;;;;;5093115;28;20439;-62
2023/09/05 10:35:18;;;;;;;5.47;4.93;;;;;;;;;;5093431;28;20484;-61
2023/09/05 10:37:52;;;;;;;2.90;2.60;;;;;;;;;;5094432;28;20447;-61
2023/09/05 10:40:22;;;;;;;3.23;2.07;;;;;;;;;;5093749;28;20437;-61
2023/09/05 10:42:50;;;;;;;2.70;2.50;;;;;;;;;;5093407;28;20507;-61
2023/09/05 10:45:19;;;;;;;2.80;2.60;;;;;;;;;;5093149;28;20882;-62
2023/09/05 10:47:47;;;;;;;3.63;2.23;;;;;;;;;;5093785;28;20779;-62
2023/09/05 10:50:19;;;;;;;2.53;2.33;;;;;;;;;;5093123;28;20502;-61
2023/09/05 10:52:49;;;;;;;2.80;2.00;;;;;;;;;;5093607;28;20531;-61
2023/09/05 10:55:39;;;;;;;3.03;2.17;;;;;;;;;;5093188;28;20901;-61
2023/09/05 10:58:27;;;;;;;5.67;2.57;;;;;;;;;;5093089;28;20490;-61
2023/09/05 11:00:54;;;;;;;5.57;2.57;;;;;;;;;;5093102;28;20518;-61
2023/09/05 11:03:21;;;;;;;3.17;2.30;;;;;;;;;;5093253;28;20446;-61
2023/09/05 11:05:50;;;;;;;3.83;3.20;;;;;;;;;;5093242;28;20442;-61
2023/09/05 11:08:22;;;;;;;4.20;3.80;;;;;;;;;;5093204;28;20906;-61
2023/09/05 11:10:53;;;;;;;2.53;2.33;;;;;;;;;;5092820;28;20438;-61
2023/09/05 11:13:20;;;;;;;4.33;3.93;;;;;;;;;;5093385;28;20805;-61
2023/09/05 11:15:47;;;;;;;3.43;3.00;;;;;;;;;;5092827;28;21016;-61
2023/09/05 11:18:17;;;;;;;7.70;3.17;;;;;;;;;;5092782;28;20504;-61
2023/09/05 11:20:45;;;;;;;13.63;7.33;;;;;;;;;;5093344;28;20466;-61
2023/09/05 11:23:13;;;;;;;3.03;2.60;;;;;;;;;;5092736;28;20490;-61
2023/09/05 11:25:46;;;;;;;4.50;2.50;;;;;;;;;;5092880;28;20442;-61
2023/09/05 11:28:13;;;;;;;3.83;2.80;;;;;;;;;;5092324;28;20450;-62
2023/09/05 11:30:41;;;;;;;3.10;2.80;;;;;;;;;;5092479;28;20440;-60
2023/09/05 11:33:09;;;;;;;2.70;2.47;;;;;;;;;;5092499;28;20449;-60
2023/09/05 11:35:38;;;;;;;9.33;6.17;;;;;;;;;;5092434;28;20566;-60
2023/09/05 11:38:06;;;;;;;3.83;2.80;;;;;;;;;;5092831;28;20864;-61
2023/09/05 11:40:33;;;;;;;2.60;2.40;;;;;;;;;;5091293;28;20553;-61
2023/09/05 11:43:06;;;;;;;2.97;2.77;;;;;;;;;;5092457;28;20498;-60
2023/09/05 11:45:34;;;;;;;2.70;2.30;;;;;;;;;;5092773;28;20459;-61
2023/09/05 11:48:01;;;;;;;2.63;2.43;;;;;;;;;;5092129;28;20479;-61
2023/09/05 11:50:31;;;;;;;2.67;2.47;;;;;;;;;;5092189;28;20530;-61
2023/09/05 11:52:59;;;;;;;2.30;2.10;;;;;;;;;;5091642;28;20542;-61
2023/09/05 11:55:27;;;;;;;2.97;2.70;;;;;;;;;;5092291;28;20423;-61
2023/09/05 11:57:55;;;;;;;6.93;2.60;;;;;;;;;;5092288;28;20637;-60
2023/09/05 12:00:24;;;;;;;3.30;3.03;;;;;;;;;;5091973;28;20471;-61
2023/09/05 12:02:51;;;;;;;5.03;2.67;;;;;;;;;;5094601;28;20443;-61
2023/09/05 12:05:20;;;;;;;2.80;2.60;;;;;;;;;;5096497;28;20786;-61
2023/09/05 12:07:50;;;;;;;3.60;2.70;;;;;;;;;;5095969;28;20525;-61
2023/09/05 12:10:17;;;;;;;3.40;2.30;;;;;;;;;;5096586;28;20791;-61
2023/09/05 12:12:53;;;;;;;2.60;2.40;;;;;;;;;;5096214;28;20534;-61
2023/09/05 12:15:30;;;;;;;3.53;2.67;;;;;;;;;;5095832;28;20781;-62
2023/09/05 12:17:57;;;;;;;2.47;2.23;;;;;;;;;;5096163;28;20432;-60
2023/09/05 12:20:24;;;;;;;2.53;2.30;;;;;;;;;;5096292;28;20467;-60
2023/09/05 12:22:52;;;;;;;2.90;2.30;;;;;;;;;;5096402;28;20509;-61
2023/09/05 12:25:21;;;;;;;2.70;2.50;;;;;;;;;;5096041;28;20522;-61
2023/09/05 12:27:49;;;;;;;2.57;2.37;;;;;;;;;;5095913;28;20533;-61
2023/09/05 12:30:31;;;;;;;3.57;2.53;;;;;;;;;;5096453;28;20536;-60
2023/09/05 12:32:57;;;;;;;8.23;3.73;;;;;;;;;;5095633;28;20505;-60
2023/09/05 12:35:26;;;;;;;3.23;2.60;;;;;;;;;;5095554;28;20538;-61
2023/09/05 12:37:53;;;;;;;7.50;5.60;;;;;;;;;;5095675;28;20528;-60
2023/09/05 12:40:21;;;;;;;3.60;3.30;;;;;;;;;;5095721;28;20527;-61
2023/09/05 12:42:49;;;;;;;4.00;3.70;;;;;;;;;;5095747;28;20452;-61
2023/09/05 12:45:16;;;;;;;2.43;2.23;;;;;;;;;;5095195;28;20440;-60
2023/09/05 12:47:49;;;;;;;3.03;2.40;;;;;;;;;;5095160;28;20497;-60
2023/09/05 12:50:16;;;;;;;3.13;2.20;;;;;;;;;;5095090;28;20430;-60
2023/09/05 12:52:44;;;;;;;2.50;2.30;;;;;;;;;;5095428;28;20546;-60
2023/09/05 12:55:12;;;;;;;1.77;1.67;;;;;;;;;;5095407;28;20475;-60
2023/09/05 12:57:39;;;;;;;2.40;2.20;;;;;;;;;;5095698;28;20474;-60
2023/09/05 13:00:07;;;;;;;3.17;2.50;;;;;;;;;;5095383;28;20528;-60
2023/09/05 13:02:35;;;;;;;4.27;2.40;;;;;;;;;;5095229;28;20430;-60
2023/09/05 13:05:03;;;;;;;4.50;2.63;;;;;;;;;;5095251;28;20436;-60
2023/09/05 13:07:31;;;;;;;2.27;2.13;;;;;;;;;;5094885;28;20931;-60
2023/09/05 13:09:58;;;;;;;3.63;2.10;;;;;;;;;;5095516;28;20539;-60
2023/09/05 13:12:26;;;;;;;2.43;2.23;;;;;;;;;;5094880;28;20443;-60
2023/09/05 13:14:53;;;;;;;2.90;2.57;;;;;;;;;;5094830;28;20440;-60
2023/09/05 13:17:20;;;;;;;2.63;2.43;;;;;;;;;;5094947;28;20507;-61
2023/09/05 13:19:47;;;;;;;2.73;2.50;;;;;;;;;;5094693;28;20784;-60
2023/09/05 13:22:17;;;;;;;4.07;3.60;;;;;;;;;;5095021;28;20539;-60
2023/09/05 13:24:44;;;;;;;3.80;3.07;;;;;;;;;;5094914;28;20410;-60
2023/09/05 13:27:12;;;;;;;6.10;5.50;;;;;;;;;;5094796;28;20440;-60
2023/09/05 13:29:40;;;;;;;3.20;2.90;;;;;;;;;;5095044;28;20412;-61
2023/09/05 13:32:09;;;;;;;3.93;2.70;;;;;;;;;;5094791;28;20461;-60
2023/09/05 13:34:37;;;;;;;2.23;1.90;;;;;;;;;;5094824;28;20419;-61
2023/09/05 13:37:04;;;;;;;2.40;2.20;;;;;;;;;;5094338;28;20474;-61
2023/09/05 13:39:33;;;;;;;5.30;3.17;;;;;;;;;;5094771;28;20418;-62
2023/09/05 13:42:00;;;;;;;3.47;3.17;;;;;;;;;;5094442;28;20450;-63
2023/09/05 13:44:28;;;;;;;8.17;2.73;;;;;;;;;;5094362;28;20444;-63
2023/09/05 13:46:55;;;;;;;2.83;2.63;;;;;;;;;;5094949;28;20531;-62
2023/09/05 13:49:23;;;;;;;2.90;2.03;;;;;;;;;;5094504;28;20424;-64
2023/09/05 13:51:51;;;;;;;2.10;2.00;;;;;;;;;;5094214;28;20438;-65
2023/09/05 13:54:20;;;;;;;2.53;2.10;;;;;;;;;;5094066;28;20498;-63
2023/09/05 13:56:49;;;;;;;3.43;2.40;;;;;;;;;;5094408;28;20510;-64
2023/09/05 13:59:18;;;;;;;6.03;2.30;;;;;;;;;;5094190;28;20414;-64
2023/09/05 14:01:45;;;;;;;2.80;2.47;;;;;;;;;;5094254;28;20522;-64
2023/09/05 14:04:14;;;;;;;4.93;3.67;;;;;;;;;;5094054;28;20445;-64
2023/09/05 14:06:43;;;;;;;2.70;2.33;;;;;;;;;;5093777;28;20460;-64
2023/09/05 14:09:10;;;;;;;4.33;2.67;;;;;;;;;;5094197;28;20474;-64
2023/09/05 14:11:37;;;;;;;3.77;2.90;;;;;;;;;;5094437;28;20410;-64
2023/09/05 14:14:06;;;;;;;2.43;2.23;;;;;;;;;;5092450;28;20448;-64
2023/09/05 14:16:33;;;;;;;3.73;2.27;;;;;;;;;;5093497;28;20495;-64
2023/09/05 14:19:00;;;;;;;3.70;2.10;;;;;;;;;;5085415;28;20419;-64
2023/09/05 14:21:27;;;;;;;1.90;1.80;;;;;;;;;;5073273;28;20416;-67
2023/09/05 14:23:55;;;;;;;4.33;2.33;;;;;;;;;;5073303;28;20530;-65
2023/09/05 14:26:24;;;;;;;5.47;2.50;;;;;;;;;;5072664;28;20415;-65
2023/09/05 14:28:51;;;;;;;2.20;1.93;;;;;;;;;;5073524;28;20447;-65
2023/09/05 14:31:20;;;;;;;4.10;3.40;;;;;;;;;;5073292;28;20515;-65
2023/09/05 14:33:48;;;;;;;4.30;3.90;;;;;;;;;;5072929;28;20937;-64
2023/09/05 14:36:15;;;;;;;3.60;2.20;;;;;;;;;;5073165;28;20780;-65
2023/09/05 14:38:42;;;;;;;5.13;4.63;;;;;;;;;;5073236;28;20532;-66
2023/09/05 14:41:09;;;;;;;2.33;2.20;;;;;;;;;;5073149;28;20425;-64
2023/09/05 14:43:36;;;;;;;2.90;2.50;;;;;;;;;;5072597;28;20823;-62
2023/09/05 14:46:03;;;;;;;3.20;2.73;;;;;;;;;;5073694;28;20557;-66